ENSB/LYR METAR and TAF weather

Enter ICAO airport designator
Station Type Date Time Source
ENSB METAR 2019/02/21 11:50 UTC NOAA

ENSB 211150Z 23016G26KT 190V270 6000 -SN SCT010 BKN020 M06/M10 Q1006 TEMPO 23025G35KT 2000 SN VV008 RMK WIND 1400FT 25024KT


Station Type Date Time Source
ENSB Decoded METAR 2019/02/21 11:50 UTC NOAA

Svalbard Lufthavn, Norway (ENSB) 78-15N 015-28E 29M
Feb 21, 2019 - 06:50 AM EST / 2019.02.21 1150 UTC
Wind: from the SW (230 degrees) at 18 MPH (16 KT) gusting to 30 MPH (26 KT) (direction variable):0
Visibility: 3 mile(s):0
Sky conditions: mostly cloudy
Weather: light snow
Temperature: 21 F (-6 C)
Windchill: 6 F (-14 C):1
Dew Point: 14 F (-10 C)
Relative Humidity: 73%
Pressure (altimeter): 29.71 in. Hg (1006 hPa)
ob: ENSB 211150Z 23016G26KT 190V270 6000 -SN SCT010 BKN020 M06/M10 Q1006 TEMPO 23025G35KT 2000 SN VV008 RMK WIND 1400FT 25024KT
cycle: 12

Station Type Date Time Source
ENSB TAF 2019/02/21 12:57 UTC NOAA

TAF ENSB 211100Z 2112/2212 23015KT 9999 FEW010 BKN020
TEMPO 2112/2118 23025G35KT 2000 SN VV006
TEMPO 2118/2203 24035G45KT 1000 BLSN SN VV004
TEMPO 2203/2212 24025G35KT 2000 SN BLSN VV006


Example: see airport list